LYVRLIBP

Guest
Details From LYVR - Vrsac
To LIBP - Pescara
Flight Number -
Tags Generated
Created
Modified
Stats Distance 350 nm / 648 km
Max Altitude 0 ft / 0 m
Waypoints 3
Social Downloads 1
Likes 0
Share VATSIM

Download

Looking for another format? Having issues loading an existing format? Contact us
Advertisement - Login to hide

Notes

Generated

Route

LYVR PES LIBP

ID Type Via Altitude Latitude Longitude Leg Dist Tot Dist Heading (true) Name
O LYVR APT - 0 ft / 0 m 45.15083˚ 21.30683˚ - 0 nm - VRSAC
PES VOR - 0 ft / 0 m 42.43611˚ 14.18444˚ 348 nm 348 nm 245° / 240° PESCARA VOR-DME
O LIBP APT - 0 ft / 0 m 42.42261˚ 14.17399˚ 0 nm 349 nm 210° / 210° -

Altitude Profile

Advertisement - Login to hide

Weather


0- 5 10 15 20 25 30 35+ Temperature / ° C

Clouds and Precipitation
Forecast for 2017-12-12 06:00 UTC. Updated 2 hours ago

Ground ~20,000 ft ~40,000 ft Winds

LYVR

Details ICAO LYVR
Name VRSAC
Region Serbia and Montenegro
Timezone Europe/Belgrade (UTC+1.0)
Stats Elevation 276 ft / 84 m (AMSL)
Location 45.147866° 21.308824°
Runways 3
Magnetic Variation 4.886° E

METAR

LYVR 120630Z 14027G37KT CAVOK 13/03 Q1010 R01/////// NOSIG

Decode

TAF

TAF LYVR 120500Z 1206/1306 13030G45KT CAVOK TX15/1212Z TN08/1305Z BECMG 1208/1210 14018G30KT BECMG 1213/1215 14012KT

Decode

Departure Runways

ID Width Length Bearing (true) Bearing (mag) Surface Threshold Offset Overrun Length
01L 230 ft / 70 m 2,738 ft / 835 m 12.21° 7.32° Grass 0 ft / 0 m 0 ft / 0 m
01R 72 ft / 22 m 3,286 ft / 1,002 m 12.05° 7.16° Asphalt 0 ft / 0 m 0 ft / 0 m
16 110 ft / 34 m 1,541 ft / 470 m 161.32° 156.43° Grass 0 ft / 0 m 0 ft / 0 m
19L 72 ft / 22 m 3,286 ft / 1,002 m 192.05° 187.16° Asphalt 0 ft / 0 m 0 ft / 0 m
19R 230 ft / 70 m 2,738 ft / 835 m 192.21° 187.32° Grass 0 ft / 0 m 0 ft / 0 m
34 110 ft / 34 m 1,541 ft / 470 m 341.33° 336.44° Grass 0 ft / 0 m 0 ft / 0 m

LIBP

Details ICAO LIBP (PSR)
Name PESCARA
Region Italy
Timezone Europe/Rome (UTC+1.0)
Stats Elevation 48 ft / 15 m (AMSL)
Location 42.431257° 14.183030°
Runways 1
Magnetic Variation 3.380° E

METAR

LIBP 120550Z AUTO 12006KT 9999 NCD 18/06 Q1008

Decode

TAF

TAF LIBP 120500Z 1206/1306 15012KT 9999 FEW040 BKN070

Decode

Destination Runways

ID Width Length Bearing (true) Bearing (mag) Surface Threshold Offset Overrun Length
04 148 ft / 45 m 7,943 ft / 2,421 m 37.19° 33.81° Asphalt 344 ft / 105 m 0 ft / 0 m
22 148 ft / 45 m 7,943 ft / 2,421 m 217.21° 213.83° Asphalt 617 ft / 188 m 0 ft / 0 m

Approach Navaids

Runway Type Ident Frequency Range Bearing (true) Bearing (mag) Slope Elevation
22 Localiser IPS 110.70 MHz 18 nm / 33 km 217.39° 214.01° - 48 ft / 15 m (AMSL)
22 Glidescope IPS 110.70 MHz 10 nm / 19 km 217.20° 213.82° 3.00° 48 ft / 15 m (AMSL)
22 DME IPS 110.70 MHz 18 nm / 33 km - - - 48 ft / 15 m (AMSL)